This is the latest recevied weather packets stored in our database for station/object N4JTC. If no packets are shown the sender has not sent any weather packets the latest 1 day(s).
| Time | Temp. | Humidity | Pressure | Rain* | Wind** | Luminosity | Snow |
|---|---|---|---|---|---|---|---|
| 1777978802 | 14.44° C | 89% | 1015.9 hPa | 0 mm | 0.89 m/s, 51° | 3 W/m² | - |
| 1777978503 | 14.44° C | 90% | 1015.6 hPa | 0 mm | 0.89 m/s, 55° | 0 W/m² | - |
| 1777977903 | 14.44° C | 89% | 1015.8 hPa | 0 mm | 0.89 m/s, 44° | 0 W/m² | - |
| 1777977603 | 14.44° C | 89% | 1015.6 hPa | 0 mm | 0.45 m/s, 48° | 0 W/m² | - |
| 1777977303 | 15° C | 89% | 1015.8 hPa | 0 mm | 0.45 m/s, 41° | 0 W/m² | - |
| 1777977004 | 15° C | 89% | 1015.6 hPa | 0 mm | 0.45 m/s, 52° | 0 W/m² | - |
| 1777976702 | 15° C | 89% | 1016.1 hPa | 0 mm | 0.45 m/s, 43° | 0 W/m² | - |
| 1777976403 | 15° C | 89% | 1015.6 hPa | 0 mm | 0.45 m/s, 43° | 0 W/m² | - |
| 1777976103 | 15° C | 89% | 1015.4 hPa | 0 mm | 0.45 m/s, 48° | 0 W/m² | - |
| 1777975803 | 14.44° C | 90% | 1015.9 hPa | 0 mm | 0 m/s | 0 W/m² | - |
| 1777975503 | 14.44° C | 90% | 1015.7 hPa | 0 mm | 0 m/s | 0 W/m² | - |
| 1777974903 | 14.44° C | 90% | 1015.7 hPa | 0 mm | 0.45 m/s, 45° | 0 W/m² | - |
| 1777974603 | 14.44° C | 90% | 1015.8 hPa | 0 mm | 0.45 m/s, 44° | 0 W/m² | - |
| 1777974303 | 13.89° C | 90% | 1015.9 hPa | 0 mm | 1.34 m/s, 47° | 0 W/m² | - |
| 1777973702 | 13.89° C | 90% | 1015.4 hPa | 0 mm | 0.89 m/s, 45° | 0 W/m² | - |
| 1777973404 | 13.89° C | 91% | 1015.2 hPa | 0 mm | 0 m/s | 0 W/m² | - |
| 1777973102 | 13.89° C | 91% | 1015.1 hPa | 0 mm | 0 m/s | 0 W/m² | - |
| 1777972803 | 13.89° C | 91% | 1015.2 hPa | 0 mm | 0 m/s | 0 W/m² | - |
| 1777972503 | 13.33° C | 92% | 1015.1 hPa | 0 mm | 0 m/s | 0 W/m² | - |
| 1777972203 | 13.33° C | 92% | 1015.1 hPa | 0 mm | 0.45 m/s, 54° | 0 W/m² | - |
| 1777971903 | 13.33° C | 91% | 1015 hPa | 0 mm | 0.45 m/s, 47° | 0 W/m² | - |
| 1777971303 | 13.33° C | 91% | 1015.2 hPa | 0 mm | 0 m/s | 0 W/m² | - |
| 1777971003 | 13.33° C | 91% | 1015 hPa | 0 mm | 0 m/s | 0 W/m² | - |
| 1777970702 | 13.33° C | 91% | 1014.9 hPa | 0 mm | 0 m/s | 0 W/m² | - |
| 1777970103 | 13.33° C | 91% | 1014.9 hPa | 0 mm | 0 m/s | 0 W/m² | - |
* Rain latest hour (hover to see other rain measurements)
** Current wind speed in m/s (hover to see current wind gust speed)